Time;durP1;ratioP1;P1;durP2;ratioP2;P2;SDS_P1;SDS_P2;PMS_P1;PMS_P2;Temp;Humidity;BMP_temperature;BMP_pressure;BME280_temperature;BME280_humidity;BME280_pressure;Samples;Min_cycle;Max_cycle;Signal;HPM_P1;HPM_P2
2021/04/26 00:00:34;;;;;;;1.75;1.65;;;;;;;7.40;50.74;101214.91;6279668;22;20071;-73
2021/04/26 00:03:08;;;;;;;1.55;1.45;;;;;;;7.39;51.04;101221.44;6276775;22;20003;-75
2021/04/26 00:05:51;;;;;;;1.30;1.20;;;;;;;7.30;50.40;101209.16;6277142;22;20003;-76
2021/04/26 00:08:19;;;;;;;2.38;1.20;;;;;;;7.22;50.70;101195.84;6276705;22;20099;-75
2021/04/26 00:10:58;;;;;;;;;;;;;;;;;;;;;
2021/04/26 00:13:24;;;;;;;1.27;1.17;;;;;;;7.12;50.49;101197.19;6279271;22;20079;-74
2021/04/26 00:15:50;;;;;;;1.08;1.08;;;;;;;7.05;51.28;101190.97;6272706;22;20030;-75
2021/04/26 00:18:17;;;;;;;3.47;1.23;;;;;;;7.18;50.67;101217.22;6279543;22;20004;-76
2021/04/26 00:20:43;;;;;;;2.05;1.35;;;;;;;7.20;50.92;101225.16;6275761;22;20553;-73
2021/04/26 00:23:12;;;;;;;3.20;1.33;;;;;;;7.13;50.95;101225.25;6275419;22;20004;-74
2021/04/26 00:25:40;;;;;;;1.52;1.35;;;;;;;7.12;50.91;101229.81;6280258;22;20007;-77
2021/04/26 00:28:07;;;;;;;2.35;1.40;;;;;;;7.05;51.14;101229.06;6252614;22;20004;-76
2021/04/26 00:30:52;;;;;;;1.80;1.10;;;;;;;6.91;51.62;101224.81;6277417;22;20019;-74
2021/04/26 00:33:18;;;;;;;1.45;1.02;;;;;;;6.87;51.42;101231.75;6279115;22;19995;-76
2021/04/26 00:35:43;;;;;;;1.20;1.10;;;;;;;6.62;51.73;101213.53;6250811;22;20035;-75
2021/04/26 00:38:11;;;;;;;1.30;0.90;;;;;;;6.55;51.57;101212.75;6278200;22;20004;-75
2021/04/26 00:40:37;;;;;;;0.95;0.80;;;;;;;6.39;51.68;101204.06;6276950;22;20057;-74
2021/04/26 00:43:05;;;;;;;2.38;0.88;;;;;;;6.41;52.00;101211.97;6277113;22;20094;-76
2021/04/26 00:45:40;;;;;;;0.82;0.73;;;;;;;6.29;51.48;101203.69;6279331;22;20010;-77
2021/04/26 00:48:08;;;;;;;0.93;0.80;;;;;;;6.23;51.94;101199.16;6280491;22;20000;-77
2021/04/26 00:50:34;;;;;;;2.38;1.15;;;;;;;6.26;52.31;101205.00;6267970;22;20011;-75
2021/04/26 00:53:06;;;;;;;4.30;1.77;;;;;;;6.02;52.41;101171.28;6296789;22;20038;-77
2021/04/26 00:55:48;;;;;;;;;;;;;;;;;;;;;
2021/04/26 00:58:16;;;;;;;3.15;1.52;;;;;;;6.01;53.31;101183.19;6286114;22;20027;-76
2021/04/26 01:00:47;;;;;;;1.98;1.33;;;;;;;6.10;53.62;101200.91;6285215;22;19992;-75
2021/04/26 01:03:13;;;;;;;1.45;1.35;;;;;;;6.16;53.14;101209.22;6235524;22;20011;-76
2021/04/26 01:05:39;;;;;;;2.30;1.45;;;;;;;5.96;53.67;101185.69;6258118;22;20003;-74
2021/04/26 01:08:05;;;;;;;2.85;1.92;;;;;;;6.05;53.65;101203.41;6254654;22;20007;-74
2021/04/26 01:10:53;;;;;;;1.70;1.60;;;;;;;5.96;53.62;101204.69;6253474;22;20030;-74
2021/04/26 01:13:53;;;;;;;;;;;;;;;;;;;;;
2021/04/26 01:16:42;;;;;;;1.58;1.48;;;;;;;5.89;54.48;101203.88;6283651;22;20039;-76
2021/04/26 01:19:43;;;;;;;1.80;1.70;;;;;;;5.82;54.11;101198.47;6280743;22;20030;-75
2021/04/26 01:22:20;;;;;;;2.00;1.40;;;;;;;5.79;53.97;101206.22;6282255;22;20420;-75
2021/04/26 01:25:15;;;;;;;;;;;;;;;;;;;;;
2021/04/26 01:28:23;;;;;;;1.30;0.90;;;;;;;5.44;54.61;101171.28;6282922;22;20027;-74
2021/04/26 01:31:17;;;;;;;;;;;;;;;;;;;;;
2021/04/26 01:33:56;;;;;;;1.65;1.42;;;;;;;5.50;54.94;101197.56;6287745;22;20023;-76
2021/04/26 01:36:51;;;;;;;1.25;1.15;;;;;;;5.22;54.99;101160.72;6257582;22;19996;-77
2021/04/26 01:39:30;;;;;;;;;;;;;;;;;;;;;
2021/04/26 01:42:15;;;;;;;;;;;;;;;;;;;;;
2021/04/26 01:44:44;;;;;;;1.17;1.08;;;;;;;5.09;54.96;101161.56;6283660;22;20023;-74
2021/04/26 01:47:28;;;;;;;;;;;;;;;;;;;;;
2021/04/26 01:50:21;;;;;;;;;;;;;;;;;;;;;
2021/04/26 01:52:51;;;;;;;1.58;0.88;;;;;;;5.13;55.33;101176.38;6276426;22;20496;-73
2021/04/26 01:55:23;;;;;;;1.52;1.08;;;;;;;5.17;55.39;101180.34;6305524;22;20102;-74
2021/04/26 01:57:52;;;;;;;1.88;1.20;;;;;;;5.09;55.56;101177.84;6279156;22;20003;-74
2021/04/26 02:00:22;;;;;;;1.40;1.27;;;;;;;4.97;55.27;101158.66;6305154;22;19995;-73
2021/04/26 02:02:59;;;;;;;1.80;1.08;;;;;;;5.06;55.27;101181.78;6305116;22;20003;-74
2021/04/26 02:05:31;;;;;;;3.95;1.05;;;;;;;5.00;55.43;101168.25;6305326;22;20026;-75
2021/04/26 02:08:10;;;;;;;1.52;1.10;;;;;;;5.10;55.60;101189.53;6280587;22;20006;-75
2021/04/26 02:10:36;;;;;;;3.40;1.27;;;;;;;5.00;55.81;101169.09;6277544;22;19995;-74
2021/04/26 02:13:04;;;;;;;1.40;1.30;;;;;;;5.00;56.00;101169.09;6281279;22;20014;-76
2021/04/26 02:15:42;;;;;;;;;;;;;;;;;;;;;
2021/04/26 02:18:20;;;;;;;0.77;0.77;;;;;;;4.79;55.37;101134.09;6310561;22;20050;-74
2021/04/26 02:21:07;;;;;;;;;;;;;;;;;;;;;
2021/04/26 02:23:38;;;;;;;2.13;0.90;;;;;;;4.85;55.10;101154.94;6317025;22;20007;-76
2021/04/26 02:26:04;;;;;;;0.73;0.70;;;;;;;4.92;54.93;101166.63;6287867;22;20098;-72
2021/04/26 02:28:29;;;;;;;1.08;0.82;;;;;;;4.97;55.83;101179.53;6279696;22;20003;-73
2021/04/26 02:31:01;;;;;;;1.65;0.82;;;;;;;4.95;55.68;101187.03;6302690;22;19999;-74
2021/04/26 02:33:48;;;;;;;1.58;1.10;;;;;;;4.81;55.57;101176.19;6308385;22;20326;-74
2021/04/26 02:36:20;;;;;;;0.80;0.77;;;;;;;4.86;55.28;101186.41;6308220;22;19999;-73
2021/04/26 02:38:51;;;;;;;1.13;1.02;;;;;;;4.84;55.59;101188.50;6301934;22;20393;-75
2021/04/26 02:41:21;;;;;;;2.38;0.95;;;;;;;4.79;55.80;101191.00;6307032;22;20003;-74
2021/04/26 02:44:02;;;;;;;0.77;0.77;;;;;;;4.72;55.80;101172.88;6276798;22;20003;-74
2021/04/26 02:46:32;;;;;;;0.68;0.60;;;;;;;4.66;55.62;101170.16;6308216;22;20421;-75
2021/04/26 02:48:58;;;;;;;1.75;0.70;;;;;;;4.63;56.42;101179.53;6306892;22;20607;-75
2021/04/26 02:51:31;;;;;;;1.08;0.75;;;;;;;4.46;56.09;101151.19;6277431;22;20017;-74
2021/04/26 02:54:02;;;;;;;0.90;0.80;;;;;;;4.57;56.69;101174.09;6279340;22;20016;-75
2021/04/26 02:56:42;;;;;;;0.80;0.80;;;;;;;4.38;56.00;101154.94;6299840;22;20736;-76
2021/04/26 02:59:19;;;;;;;;;;;;;;;;;;;;;
2021/04/26 03:01:56;;;;;;;1.10;1.10;;;;;;;4.26;56.52;101149.28;6301575;22;20075;-76
2021/04/26 03:04:32;;;;;;;3.70;1.40;;;;;;;4.27;56.67;101148.25;6277988;22;20003;-76
2021/04/26 03:07:05;;;;;;;1.10;1.10;;;;;;;4.15;56.41;101148.03;6308641;22;20019;-75
2021/04/26 03:09:31;;;;;;;1.50;1.10;;;;;;;4.06;57.55;101151.13;6278813;22;20074;-76
2021/04/26 03:12:00;;;;;;;1.55;0.85;;;;;;;4.10;56.53;101158.63;6277530;22;20003;-77
2021/04/26 03:14:36;;;;;;;;;;;;;;;;;;;;;
2021/04/26 03:17:24;;;;;;;1.63;1.52;;;;;;;3.76;57.74;101140.66;6307818;22;20082;-75
2021/04/26 03:19:49;;;;;;;6.95;1.42;;;;;;;3.82;57.59;101151.47;6305399;22;20422;-77
2021/04/26 03:22:15;;;;;;;1.50;1.40;;;;;;;3.85;58.87;101158.38;6275727;22;20011;-77
2021/04/26 03:24:43;;;;;;;1.17;1.08;;;;;;;3.81;57.82;101162.50;6281173;22;20007;-76
2021/04/26 03:27:26;;;;;;;4.43;1.10;;;;;;;3.74;57.82;101156.25;6255914;22;20012;-77
2021/04/26 03:29:55;;;;;;;1.52;1.23;;;;;;;3.58;58.29;101139.34;6257470;22;20422;-77
2021/04/26 03:32:27;;;;;;;1.38;1.08;;;;;;;3.51;58.66;101133.06;6304801;22;20003;-78
2021/04/26 03:34:56;;;;;;;0.93;0.93;;;;;;;3.57;58.78;101150.38;6310374;22;20000;-76
2021/04/26 03:37:23;;;;;;;0.77;0.77;;;;;;;3.41;59.02;101132.63;6251156;22;20078;-77
2021/04/26 03:39:59;;;;;;;;;;;;;;;;;;;;;
2021/04/26 03:42:25;;;;;;;1.13;1.00;;;;;;;3.30;59.65;101126.75;6307207;22;20070;-76
2021/04/26 03:44:53;;;;;;;0.80;0.80;;;;;;;3.34;59.45;101131.75;6280643;22;20362;-77
2021/04/26 03:47:21;;;;;;;1.13;0.98;;;;;;;3.40;58.57;101141.75;6275253;22;20038;-73
2021/04/26 03:49:49;;;;;;;0.70;0.70;;;;;;;3.48;59.12;101155.13;6255060;22;20435;-74
2021/04/26 03:52:19;;;;;;;1.45;0.77;;;;;;;3.36;58.61;101135.94;6276221;22;20010;-74
2021/04/26 03:54:57;;;;;;;;;;;;;;;;;;;;;
2021/04/26 03:57:23;;;;;;;0.70;0.70;;;;;;;3.40;59.39;101131.78;6306146;22;20062;-73
2021/04/26 03:59:52;;;;;;;1.75;0.88;;;;;;;3.37;58.61;101120.53;6310241;22;19999;-74
2021/04/26 04:02:17;;;;;;;0.88;0.88;;;;;;;3.41;59.67;101119.91;6303340;22;20000;-73
2021/04/26 04:04:43;;;;;;;0.98;0.90;;;;;;;3.51;59.73;101132.25;6277109;22;20011;-74
2021/04/26 04:07:10;;;;;;;2.55;0.73;;;;;;;3.51;58.91;101122.25;6305989;22;20426;-73
2021/04/26 04:09:41;;;;;;;0.57;0.43;;;;;;;3.51;59.05;101116.03;6306228;22;20078;-75
2021/04/26 04:12:09;;;;;;;1.88;0.90;;;;;;;3.55;59.11;101123.53;6252240;22;20440;-73
2021/04/26 04:14:44;;;;;;;0.93;0.93;;;;;;;3.65;59.32;101123.13;6277380;22;20009;-74
2021/04/26 04:17:21;;;;;;;4.20;0.73;;;;;;;3.51;58.88;101111.44;6303498;22;20685;-73
2021/04/26 04:19:47;;;;;;;0.85;0.50;;;;;;;3.58;59.16;101116.88;6307814;22;19999;-75
2021/04/26 04:22:15;;;;;;;0.73;0.73;;;;;;;3.65;58.24;101123.13;6277939;22;20097;-73
2021/04/26 04:24:40;;;;;;;1.48;0.70;;;;;;;3.58;59.23;101106.06;6277887;22;20438;-73
2021/04/26 04:27:06;;;;;;;1.75;0.70;;;;;;;3.74;58.80;101118.38;6308396;22;20010;-73
2021/04/26 04:29:39;;;;;;;3.80;0.90;;;;;;;3.79;59.18;101126.72;6246871;22;20014;-74
2021/04/26 04:32:06;;;;;;;1.95;0.63;;;;;;;3.70;58.98;101100.91;6284230;22;20018;-73
2021/04/26 04:34:33;;;;;;;0.50;0.50;;;;;;;3.61;59.09;101089.44;6281064;22;20003;-74
2021/04/26 04:37:08;;;;;;;2.08;0.75;;;;;;;3.61;58.42;101090.25;6258211;22;20057;-74
2021/04/26 04:39:38;;;;;;;1.25;0.60;;;;;;;3.80;59.04;101114.88;6281654;22;20026;-75
2021/04/26 04:42:07;;;;;;;1.27;0.52;;;;;;;3.63;58.18;101093.56;6281427;22;20141;-75
2021/04/26 04:44:32;;;;;;;1.60;0.70;;;;;;;3.60;58.37;101085.03;6279005;22;20010;-73
2021/04/26 04:47:00;;;;;;;0.40;0.40;;;;;;;3.67;58.36;101102.94;6252961;22;20007;-75
2021/04/26 04:49:56;;;;;;;0.75;0.50;;;;;;;3.60;58.80;101096.69;6278730;22;20078;-74
2021/04/26 04:52:34;;;;;;;;;;;;;;;;;;;;;
2021/04/26 04:55:09;;;;;;;0.52;0.50;;;;;;;3.27;58.06;101067.69;6282036;22;20099;-75
2021/04/26 04:57:42;;;;;;;0.30;0.28;;;;;;;3.23;58.03;101081.81;6275913;22;20032;-74
2021/04/26 05:00:08;;;;;;;0.47;0.20;;;;;;;3.20;58.33;101076.78;6276624;22;20006;-75
2021/04/26 05:02:36;;;;;;;0.40;0.40;;;;;;;3.16;58.67;101076.34;6249300;22;20007;-73
2021/04/26 05:05:11;;;;;;;2.97;0.20;;;;;;;3.22;58.76;101089.06;6247280;22;20006;-73
2021/04/26 05:07:36;;;;;;;0.20;0.20;;;;;;;3.12;58.24;101075.09;6250304;22;20007;-73
2021/04/26 05:10:03;;;;;;;1.17;0.38;;;;;;;3.25;59.54;101096.75;6273627;22;20296;-74
2021/04/26 05:12:31;;;;;;;0.20;0.20;;;;;;;3.28;58.56;101090.94;6278572;22;19999;-75
2021/04/26 05:15:01;;;;;;;0.28;0.25;;;;;;;3.19;58.19;101075.13;6251364;22;20008;-74
2021/04/26 05:17:36;;;;;;;0.43;0.30;;;;;;;3.21;59.26;101063.06;6248502;22;20349;-74
2021/04/26 05:20:04;;;;;;;1.17;0.20;;;;;;;3.30;59.45;101090.75;6222980;22;20015;-73
2021/04/26 05:22:34;;;;;;;1.13;0.35;;;;;;;3.23;58.90;101071.81;6275757;22;20004;-75
2021/04/26 05:26:00;;;;;;;;;;;;;;;;;;;;;
2021/04/26 05:28:47;;;;;;;0.50;0.40;;;;;;;3.42;58.39;101091.84;6271692;22;20031;-75
2021/04/26 05:31:16;;;;;;;0.60;0.45;;;;;;;3.16;58.46;101045.81;6183130;22;20022;-73
2021/04/26 05:33:49;;;;;;;0.40;0.40;;;;;;;3.19;59.43;101065.13;6279256;22;20004;-75
2021/04/26 05:36:55;;;;;;;0.63;0.60;;;;;;;3.23;59.07;101066.41;6274683;22;20011;-73
2021/04/26 05:39:27;;;;;;;0.68;0.20;;;;;;;3.20;58.48;101056.00;6271706;22;20000;-75
2021/04/26 05:41:53;;;;;;;0.40;0.20;;;;;;;3.37;58.88;101077.28;6248084;22;20428;-75
2021/04/26 05:44:21;;;;;;;0.68;0.65;;;;;;;3.31;58.91;101068.94;6253277;22;20004;-74
2021/04/26 05:46:57;;;;;;;;;;;;;;;;;;;;;
2021/04/26 05:49:23;;;;;;;0.40;0.40;;;;;;;3.38;58.46;101068.13;6278500;22;20070;-76
2021/04/26 05:51:51;;;;;;;2.47;0.88;;;;;;;3.63;59.60;101098.97;6249198;22;20027;-74
2021/04/26 05:54:25;;;;;;;0.95;0.57;;;;;;;3.71;59.33;101098.00;6280929;22;20012;-76
2021/04/26 05:57:01;;;;;;;;;;;;;;;;;;;;;
2021/04/26 05:59:27;;;;;;;1.02;0.77;;;;;;;3.79;59.07;101078.03;6279892;22;20072;-75
2021/04/26 06:01:53;;;;;;;1.00;0.68;;;;;;;3.84;58.90;101079.06;6252226;22;20015;-77
2021/04/26 06:04:40;;;;;;;4.82;0.95;;;;;;;3.81;59.03;101068.66;6278881;22;20075;-77
2021/04/26 06:07:13;;;;;;;0.30;0.30;;;;;;;3.89;58.87;101074.94;6252519;22;19999;-76
2021/04/26 06:09:50;;;;;;;1.08;0.60;;;;;;;3.92;58.91;101059.09;6253212;22;20008;-77
2021/04/26 06:12:30;;;;;;;2.65;0.80;;;;;;;3.95;58.04;101052.44;6278804;22;20004;-76
2021/04/26 06:14:59;;;;;;;3.75;0.43;;;;;;;4.23;59.07;101087.44;6278674;22;20003;-77
2021/04/26 06:17:24;;;;;;;0.68;0.68;;;;;;;4.41;58.03;101099.50;6282860;22;20484;-76
2021/04/26 06:19:53;;;;;;;2.47;0.70;;;;;;;4.43;57.84;101086.63;6280055;22;20003;-74
2021/04/26 06:22:20;;;;;;;0.77;0.43;;;;;;;4.53;58.21;101081.59;6251939;22;20007;-72
2021/04/26 06:24:46;;;;;;;0.50;0.50;;;;;;;4.69;57.61;101097.41;6248086;22;20007;-76
2021/04/26 06:27:11;;;;;;;0.88;0.57;;;;;;;4.74;57.21;101079.69;6277401;22;20071;-74
2021/04/26 06:29:37;;;;;;;5.78;0.60;;;;;;;4.89;57.88;101074.84;6227163;22;20418;-74
2021/04/26 06:32:02;;;;;;;2.00;0.52;;;;;;;5.02;57.82;101082.97;6286882;22;20003;-76
2021/04/26 06:34:28;;;;;;;3.60;0.52;;;;;;;5.10;57.17;101059.41;6259095;22;20338;-74
2021/04/26 06:37:03;;;;;;;2.05;0.60;;;;;;;5.32;56.92;101082.44;6289564;22;19999;-76
2021/04/26 06:39:28;;;;;;;0.60;0.57;;;;;;;5.34;56.51;101055.09;6260969;22;20470;-74
2021/04/26 06:41:54;;;;;;;2.90;0.50;;;;;;;5.58;56.64;101077.97;6260014;22;20008;-73
2021/04/26 06:44:19;;;;;;;1.08;1.00;;;;;;;5.83;56.31;101079.91;6231775;22;20003;-74
2021/04/26 06:46:45;;;;;;;1.17;0.75;;;;;;;6.06;56.07;101074.75;6257999;22;20073;-76
2021/04/26 06:49:15;;;;;;;0.60;0.40;;;;;;;6.32;55.50;101078.28;6255719;22;20014;-75
2021/04/26 06:51:40;;;;;;;4.25;0.73;;;;;;;6.55;55.37;101079.59;6286277;22;20449;-77
2021/04/26 06:54:06;;;;;;;2.67;0.70;;;;;;;6.71;54.41;101083.63;6230702;22;20312;-74
2021/04/26 06:56:31;;;;;;;0.98;0.55;;;;;;;6.81;53.63;101070.34;6261247;22;20046;-77
2021/04/26 06:58:57;;;;;;;0.60;0.55;;;;;;;6.92;53.39;101060.59;6259764;22;20031;-75
2021/04/26 07:01:25;;;;;;;8.70;0.50;;;;;;;7.10;53.37;101063.31;6261150;22;19999;-73
2021/04/26 07:03:53;;;;;;;0.98;0.52;;;;;;;7.23;51.69;101053.31;6236318;22;20333;-76
2021/04/26 07:06:36;;;;;;;2.25;0.52;;;;;;;7.48;52.05;101061.41;6253687;22;20038;-72
2021/04/26 07:09:05;;;;;;;0.40;0.40;;;;;;;7.59;51.27;101055.16;6255983;22;20031;-72
2021/04/26 07:11:48;;;;;;;0.70;0.55;;;;;;;7.89;50.99;101078.00;6284822;22;20018;-71
2021/04/26 07:14:22;;;;;;;0.65;0.65;;;;;;;8.06;50.01;101081.72;6234673;22;20042;-72
2021/04/26 07:16:51;;;;;;;0.65;0.45;;;;;;;8.19;50.72;101080.66;6258506;22;20055;-73
2021/04/26 07:19:16;;;;;;;0.45;0.40;;;;;;;8.32;49.98;101079.63;6282691;22;20030;-72
2021/04/26 07:21:44;;;;;;;0.90;0.55;;;;;;;8.45;49.13;101078.59;6270201;22;20004;-73
2021/04/26 07:24:10;;;;;;;0.75;0.50;;;;;;;8.49;48.89;101064.25;6248642;22;20006;-72
2021/04/26 07:26:36;;;;;;;1.42;0.50;;;;;;;8.70;49.08;101081.09;6223683;22;20007;-72
2021/04/26 07:29:02;;;;;;;6.00;0.80;;;;;;;8.78;48.12;101075.28;6241043;22;20043;-71
2021/04/26 07:31:27;;;;;;;0.95;0.70;;;;;;;8.84;47.55;101071.59;6274466;22;20015;-71
2021/04/26 07:34:01;;;;;;;0.93;0.50;;;;;;;8.96;48.19;101068.84;6251022;22;20146;-69
2021/04/26 07:36:27;;;;;;;2.50;0.70;;;;;;;9.17;48.14;101081.06;6241156;22;20043;-71
2021/04/26 07:38:52;;;;;;;0.80;0.40;;;;;;;9.37;46.97;101085.28;6272958;22;20477;-72
2021/04/26 07:41:18;;;;;;;1.83;1.00;;;;;;;9.48;46.75;101054.38;6247257;22;19995;-71
2021/04/26 07:43:46;;;;;;;0.30;0.30;;;;;;;9.75;45.72;101065.56;6276021;22;20007;-72
2021/04/26 07:46:12;;;;;;;0.57;0.57;;;;;;;9.78;45.09;101065.06;6248533;22;20011;-70
2021/04/26 07:48:38;;;;;;;1.30;0.40;;;;;;;9.72;45.55;101051.53;6281688;22;20099;-67
2021/04/26 07:51:05;;;;;;;0.80;0.50;;;;;;;9.74;44.38;101069.34;6277110;22;20003;-70
2021/04/26 07:53:31;;;;;;;3.50;0.50;;;;;;;9.68;44.25;101050.38;6278652;22;20065;-73
2021/04/26 07:56:06;;;;;;;;;;;;;;;;;;;;;
2021/04/26 07:58:42;;;;;;;0.95;0.57;;;;;;;9.73;44.61;101050.47;6280180;22;20038;-72
2021/04/26 08:01:07;;;;;;;0.68;0.32;;;;;;;9.72;44.49;101060.56;6283615;22;19996;-71
2021/04/26 08:03:33;;;;;;;1.35;0.90;;;;;;;9.67;44.45;101040.53;6283124;22;20095;-72
2021/04/26 08:05:58;;;;;;;0.57;0.50;;;;;;;9.82;43.96;101072.75;6283382;22;20018;-72
2021/04/26 08:08:34;;;;;;;;;;;;;;;;;;;;;
2021/04/26 08:10:59;;;;;;;0.77;0.40;;;;;;;9.78;43.98;101053.28;6290495;22;20042;-74
2021/04/26 08:13:26;;;;;;;0.70;0.30;;;;;;;9.94;43.64;101074.38;6291788;22;20004;-74
2021/04/26 08:15:57;;;;;;;4.03;0.50;;;;;;;9.89;43.60;101055.13;6291353;22;20014;-75
2021/04/26 08:18:22;;;;;;;0.50;0.50;;;;;;;9.94;43.53;101068.91;6290746;22;20075;-74
2021/04/26 08:20:50;;;;;;;0.47;0.30;;;;;;;10.02;43.53;101058.66;6289753;22;20003;-75
2021/04/26 08:23:16;;;;;;;2.80;0.75;;;;;;;10.10;43.69;101055.47;6289698;22;20035;-75
2021/04/26 08:25:41;;;;;;;1.42;0.57;;;;;;;10.16;43.11;101059.94;6263872;22;20030;-74
2021/04/26 08:28:15;;;;;;;0.70;0.70;;;;;;;10.24;44.30;101047.81;6288779;22;20035;-75
2021/04/26 08:30:44;;;;;;;0.70;0.50;;;;;;;10.38;43.78;101051.03;6263361;22;20008;-75
2021/04/26 08:33:09;;;;;;;2.15;0.40;;;;;;;10.50;43.62;101054.53;6280679;22;19995;-71
2021/04/26 08:35:37;;;;;;;0.77;0.50;;;;;;;10.59;43.03;101053.03;6228714;22;20019;-71
2021/04/26 08:38:03;;;;;;;0.73;0.43;;;;;;;10.60;42.17;101038.28;6277674;22;20019;-71
2021/04/26 08:40:31;;;;;;;0.65;0.65;;;;;;;10.68;42.95;101034.28;6273380;22;20007;-72
2021/04/26 08:43:08;;;;;;;4.18;0.65;;;;;;;10.80;41.69;101036.91;6278041;22;20011;-72
2021/04/26 08:45:36;;;;;;;1.13;0.52;;;;;;;10.85;41.56;101034.25;6284593;22;20011;-75
2021/04/26 08:48:03;;;;;;;0.50;0.30;;;;;;;10.78;41.53;101006.25;6283043;22;20007;-74
2021/04/26 08:50:49;;;;;;;0.50;0.40;;;;;;;11.01;41.35;101016.13;6284419;22;20418;-75
2021/04/26 08:53:17;;;;;;;0.50;0.40;;;;;;;11.16;42.05;101015.47;6282749;22;20050;-74
2021/04/26 08:55:43;;;;;;;2.85;0.50;;;;;;;11.25;41.12;101013.13;6281063;22;20020;-73
2021/04/26 08:58:08;;;;;;;1.02;0.60;;;;;;;11.42;41.00;101015.75;6284346;22;20017;-74
2021/04/26 09:00:34;;;;;;;0.52;0.50;;;;;;;11.55;40.54;101009.88;6285684;22;20000;-73
2021/04/26 09:03:02;;;;;;;2.65;0.68;;;;;;;11.52;40.02;100983.00;6285069;22;20000;-75
2021/04/26 09:05:36;;;;;;;0.75;0.40;;;;;;;11.85;40.09;101009.34;6255115;22;20014;-77
2021/04/26 09:08:27;;;;;;;0.60;0.40;;;;;;;12.08;39.81;101012.84;6283387;22;20027;-75
2021/04/26 09:10:58;;;;;;;0.52;0.40;;;;;;;12.01;39.79;100971.13;6282289;22;20034;-74
2021/04/26 09:13:33;;;;;;;0.75;0.70;;;;;;;12.26;39.45;100986.94;6285640;22;20014;-73
2021/04/26 09:16:01;;;;;;;1.70;0.93;;;;;;;12.49;38.54;100995.88;6283433;22;20464;-73
2021/04/26 09:18:43;;;;;;;0.85;0.57;;;;;;;12.62;39.01;100995.41;6281861;22;20014;-75
2021/04/26 09:21:27;;;;;;;2.80;0.80;;;;;;;12.90;38.28;101002.41;6283918;22;20003;-73
2021/04/26 09:24:27;;;;;;;;;;;;;;;;;;;;;
2021/04/26 09:27:05;;;;;;;3.13;0.60;;;;;;;13.47;37.46;100999.06;6284897;22;20027;-74
2021/04/26 09:29:48;;;;;;;1.63;0.50;;;;;;;13.74;37.43;100999.66;6282399;22;20010;-74
2021/04/26 09:32:21;;;;;;;0.95;0.40;;;;;;;14.00;36.55;100974.91;6252502;22;20099;-75
2021/04/26 09:34:53;;;;;;;0.47;0.30;;;;;;;14.49;36.60;100992.72;6283499;22;20010;-75
2021/04/26 09:37:54;;;;;;;;;;;;;;;;;;;;;
2021/04/26 09:41:06;;;;;;;6.22;0.70;;;;;;;15.13;34.68;100960.88;6275850;22;20031;-78
2021/04/26 09:43:32;;;;;;;0.30;0.30;;;;;;;15.84;35.21;100983.59;6283933;22;20067;-77
2021/04/26 09:45:59;;;;;;;3.63;0.47;;;;;;;16.19;33.88;100967.84;6307096;22;20003;-79
2021/04/26 09:48:29;;;;;;;0.77;0.50;;;;;;;16.53;33.50;100955.91;6285495;22;20042;-77
2021/04/26 09:51:16;;;;;;;;;;;;;;;;;;;;;
2021/04/26 09:53:54;;;;;;;1.25;0.40;;;;;;;17.71;32.06;100978.41;6288233;22;20031;-78
2021/04/26 09:56:30;;;;;;;0.63;0.40;;;;;;;18.02;30.96;100979.84;6283923;22;20016;-78
2021/04/26 09:59:16;;;;;;;0.63;0.47;;;;;;;18.35;31.33;100943.84;6286273;22;20299;-77
2021/04/26 10:01:50;;;;;;;;;;;;;;;19.19;31.61;100974.00;6287016;22;20003;-76
2021/04/26 10:04:16;;;;;;;2.10;0.50;;;;;;;19.42;30.12;100945.47;6261922;22;19907;-76
2021/04/26 10:07:05;;;;;;;2.75;0.35;;;;;;;19.88;28.76;100947.19;6285370;22;19999;-74
2021/04/26 10:09:34;;;;;;;3.63;1.02;;;;;;;20.36;28.44;100946.47;6268030;22;20011;-75
2021/04/26 10:12:18;;;;;;;0.80;0.50;;;;;;;20.91;27.71;100966.66;6275989;22;20007;-75
2021/04/26 10:14:44;;;;;;;3.72;0.40;;;;;;;21.21;26.74;100955.72;6280741;22;20003;-75
2021/04/26 10:17:41;;;;;;;0.93;0.57;;;;;;;21.61;27.14;100952.81;6254223;22;20035;-74
2021/04/26 10:20:07;;;;;;;1.35;0.50;;;;;;;21.94;26.07;100941.16;6281495;22;20006;-74
2021/04/26 10:22:41;;;;;;;2.92;0.80;;;;;;;22.47;25.11;100958.56;6283915;22;19996;-74
2021/04/26 10:25:16;;;;;;;0.88;0.60;;;;;;;22.75;24.84;100933.84;6275869;22;20031;-74
2021/04/26 10:27:48;;;;;;;2.55;0.73;;;;;;;23.45;24.25;100947.34;6285630;22;20000;-74
2021/04/26 10:30:19;;;;;;;0.15;0.15;;;;;;;24.10;24.65;100955.28;6282688;22;20065;-74
2021/04/26 10:33:03;;;;;;;1.23;0.55;;;;;;;24.63;22.94;100954.69;6282630;22;20039;-73
2021/04/26 10:35:55;;;;;;;0.77;0.55;;;;;;;24.93;22.83;100952.44;6276626;22;20023;-75
2021/04/26 10:38:43;;;;;;;;;;;;;;;;;;;;;
2021/04/26 10:41:19;;;;;;;5.75;0.40;;;;;;;25.90;22.16;100943.31;6281305;22;20019;-75
2021/04/26 10:43:52;;;;;;;1.27;0.22;;;;;;;26.36;21.40;100915.72;6256992;22;20080;-75
2021/04/26 10:46:19;;;;;;;0.65;0.60;;;;;;;26.88;20.20;100939.00;6281363;22;20008;-75
2021/04/26 10:49:03;;;;;;;1.25;0.40;;;;;;;27.48;20.81;100935.13;6278740;22;20006;-75
2021/04/26 10:51:36;;;;;;;0.40;0.30;;;;;;;27.82;20.21;100915.75;6284324;22;20000;-75
2021/04/26 10:54:03;;;;;;;0.50;0.30;;;;;;;28.63;19.91;100931.66;6284223;22;20288;-76
2021/04/26 10:56:31;;;;;;;0.93;0.55;;;;;;;29.28;19.13;100923.34;6286010;22;20019;-75
2021/04/26 10:59:20;;;;;;;3.33;0.45;;;;;;;29.80;18.05;100920.75;6256635;22;20445;-75
2021/04/26 11:02:29;;;;;;;0.77;0.52;;;;;;;30.18;17.56;100907.44;6273207;22;20004;-77
2021/04/26 11:05:47;;;;;;;3.03;0.50;;;;;;;30.88;17.22;100924.53;6229126;22;20311;-76
2021/04/26 11:08:36;;;;;;;1.75;0.32;;;;;;;31.26;15.76;100891.25;6282579;22;20003;-76
2021/04/26 11:11:47;;;;;;;0.50;0.40;;;;;;;31.78;15.96;100908.00;6258356;22;20008;-77
2021/04/26 11:14:36;;;;;;;2.70;0.57;;;;;;;31.84;15.07;100901.53;6233802;22;20004;-76
2021/04/26 11:17:05;;;;;;;0.57;0.40;;;;;;;32.00;14.97;100891.88;6256453;22;19995;-76
2021/04/26 11:19:58;;;;;;;0.40;0.40;;;;;;;32.25;14.27;100880.59;6232569;22;20010;-75
2021/04/26 11:22:42;;;;;;;0.77;0.50;;;;;;;32.67;14.56;100889.50;6239730;22;20008;-75
2021/04/26 11:25:10;;;;;;;1.13;0.40;;;;;;;33.10;14.06;100878.00;6234780;22;20410;-75
2021/04/26 11:27:38;;;;;;;0.30;0.20;;;;;;;33.45;13.87;100878.28;6286061;22;20006;-77
2021/04/26 11:30:03;;;;;;;0.88;0.43;;;;;;;33.89;13.88;100877.66;6257598;22;20518;-74
2021/04/26 11:32:29;;;;;;;0.45;0.40;;;;;;;34.28;12.97;100880.59;6257310;22;20007;-74
2021/04/26 11:34:56;;;;;;;0.68;0.38;;;;;;;34.75;13.46;100872.41;6257153;22;20033;-77
2021/04/26 11:37:23;;;;;;;0.93;0.52;;;;;;;35.03;11.84;100862.81;6286014;22;20027;-74
2021/04/26 11:39:53;;;;;;;0.73;0.50;;;;;;;35.08;11.88;100864.38;6229153;22;19999;-74
2021/04/26 11:42:29;;;;;;;0.32;0.30;;;;;;;35.48;12.17;100858.97;6252696;22;20030;-77
2021/04/26 11:44:58;;;;;;;2.08;0.45;;;;;;;35.78;11.46;100863.00;6291207;22;20000;-74
2021/04/26 11:47:32;;;;;;;2.38;0.40;;;;;;;36.00;11.95;100864.28;6293395;22;20015;-73
2021/04/26 11:50:06;;;;;;;0.40;0.30;;;;;;;36.58;11.72;100849.06;6237280;22;20008;-75
2021/04/26 11:52:42;;;;;;;0.52;0.40;;;;;;;37.16;10.78;100847.91;6288894;22;20000;-73
2021/04/26 11:55:13;;;;;;;0.38;0.38;;;;;;;37.43;10.96;100846.91;6258402;22;20079;-73
2021/04/26 11:57:50;;;;;;;0.38;0.20;;;;;;;37.83;10.88;100843.97;6317253;22;20002;-74
2021/04/26 12:00:18;;;;;;;0.65;0.43;;;;;;;38.31;10.58;100852.97;6289158;22;19999;-75
2021/04/26 12:02:49;;;;;;;0.80;0.40;;;;;;;38.68;10.14;100840.13;6314598;22;20003;-75
2021/04/26 12:05:16;;;;;;;0.47;0.35;;;;;;;39.12;10.13;100839.69;6288375;22;20007;-74
2021/04/26 12:07:42;;;;;;;0.88;0.40;;;;;;;39.44;9.72;100827.25;6288318;22;20014;-74
2021/04/26 12:10:16;;;;;;;0.38;0.30;;;;;;;39.78;9.62;100822.91;6314666;22;20003;-76
2021/04/26 12:12:44;;;;;;;0.30;0.30;;;;;;;40.26;9.28;100822.09;6289788;22;20003;-75
2021/04/26 12:15:20;;;;;;;0.55;0.25;;;;;;;40.52;9.24;100824.91;6288541;22;20014;-75
2021/04/26 12:17:49;;;;;;;0.68;0.40;;;;;;;40.48;8.46;100825.84;6288012;22;20007;-76
2021/04/26 12:20:23;;;;;;;0.60;0.50;;;;;;;40.37;8.44;100816.81;6316178;22;19995;-75
2021/04/26 12:22:59;;;;;;;0.80;0.47;;;;;;;40.51;8.46;100815.53;6291129;22;20003;-79
2021/04/26 12:25:39;;;;;;;0.20;0.20;;;;;;;40.97;8.76;100823.66;6318291;22;20007;-78
2021/04/26 12:28:08;;;;;;;2.92;0.45;;;;;;;41.03;7.30;100815.25;6292201;22;20008;-76
2021/04/26 12:30:43;;;;;;;1.80;0.45;;;;;;;40.93;7.74;100802.91;6289931;22;20011;-77
2021/04/26 12:33:25;;;;;;;0.35;0.28;;;;;;;41.32;7.49;100809.97;6317528;22;20000;-72